CheckWX is a tool to help pilots better visualize weather data.  It is not intended as a substitute for an official pre-flight weather briefing.

08:25:58 UTC

HCMM METAR
Aden Adde International Airport
Mogadishu
Current

26 mins ago

HCMM 230800Z 18006KT 9999 BKN021 32/26 Q1009
Observed
Apr-23 @ 08:00 UTC
Wind
  • 180° at 6 KTS
Visibility
10,000+ meters
Flight Rules
MVFR
Cloud Levels
  • Broken at 2,100' AGL
Temperature
32°C / 90°F
Dewpoint
26°C / 79°F
Heat Index
42°C / 107°F
Humidity
71%
Altimeter
29.79" Hg
Pressure
1008.92 hPa
Previous

1 hour ago

HCMM 230700Z 19007KT 9999 BKN020 32/25 Q1009
Observed
Apr-23 @ 07:00 UTC
Wind
  • 190° at 7 KTS
Visibility
10,000+ meters
Flight Rules
MVFR
Cloud Levels
  • Broken at 2,000' AGL
Temperature
32°C / 90°F
Dewpoint
25°C / 77°F
Heat Index
40°C / 104°F
Humidity
67%
Altimeter
29.79" Hg
Pressure
1008.92 hPa
Previous

3 hours ago

HCMM 230500Z 20009KT 9999 BKN019 31/25 Q1008
Observed
Apr-23 @ 05:00 UTC
Wind
  • 200° at 9 KTS
Visibility
10,000+ meters
Flight Rules
MVFR
Cloud Levels
  • Broken at 1,900' AGL
Temperature
31°C / 88°F
Dewpoint
25°C / 77°F
Heat Index
38°C / 100°F
Humidity
70%
Altimeter
29.76" Hg
Pressure
1007.92 hPa